Time;durP1;ratioP1;P1;durP2;ratioP2;P2;SDS_P1;SDS_P2;PMS_P1;PMS_P2;Temp;Humidity;BMP_temperature;BMP_pressure;BME280_temperature;BME280_humidity;BME280_pressure;Samples;Min_cycle;Max_cycle;Signal;HPM_P1;HPM_P2
2022/06/23 00:00:22;;;;;;;16.73;10.02;;;24.80;99.90;;;;;;5031457;28;20048;-75
2022/06/23 00:03:16;;;;;;;19.40;11.00;;;24.70;99.90;;;;;;5030159;28;20055;-78
2022/06/23 00:06:06;;;;;;;17.33;10.63;;;24.60;99.90;;;;;;5031561;28;20453;-78
2022/06/23 00:08:52;;;;;;;13.88;10.35;;;24.60;99.90;;;;;;5011703;28;20048;-78
2022/06/23 00:11:49;;;;;;;18.55;10.27;;;24.50;99.90;;;;;;5011435;28;20040;-78
2022/06/23 00:14:35;;;;;;;18.23;10.05;;;24.50;99.90;;;;;;5011602;28;20049;-77
2022/06/23 00:17:43;;;;;;;15.63;9.65;;;24.40;99.90;;;;;;5011310;28;20120;-76
2022/06/23 00:21:11;;;;;;;12.68;9.25;;;24.50;99.90;;;;;;5015366;28;20169;-80
2022/06/23 00:24:02;;;;;;;17.30;10.07;;;24.40;99.90;;;;;;5011070;28;20052;-77
2022/06/23 00:26:50;;;;;;;14.52;10.30;;;24.50;99.90;;;;;;5014933;28;20045;-78
2022/06/23 00:29:36;;;;;;;15.65;9.25;;;24.50;99.90;;;;;;5014818;28;20073;-79
2022/06/23 00:32:22;;;;;;;14.93;10.77;;;24.50;99.90;;;;;;5015042;28;20228;-77
2022/06/23 00:35:16;;;;;;;15.90;9.82;;;24.50;99.90;;;;;;5033024;28;20499;-78
2022/06/23 00:38:02;;;;;;;14.40;9.32;;;24.50;99.90;;;;;;5033341;28;20095;-79
2022/06/23 00:40:48;;;;;;;17.67;10.23;;;24.30;99.90;;;;;;5034653;28;20049;-77
2022/06/23 00:43:34;;;;;;;18.65;10.50;;;24.30;99.90;;;;;;5033933;28;20068;-78
2022/06/23 00:46:49;;;;;;;18.50;9.77;;;24.20;99.90;;;;;;5034230;28;20132;-79
2022/06/23 00:49:57;;;;;;;17.48;10.85;;;24.30;99.90;;;;;;5046522;28;20048;-77
2022/06/23 00:53:02;;;;;;;14.25;9.73;;;24.30;99.90;;;;;;5038990;28;20395;-76
2022/06/23 00:56:26;;;;;;;13.68;9.38;;;24.10;99.90;;;;;;5053853;28;20513;-77
2022/06/23 00:59:20;;;;;;;13.82;9.65;;;24.10;99.90;;;;;;5053643;28;20052;-76
2022/06/23 01:02:11;;;;;;;12.68;10.50;;;24.20;99.90;;;;;;5053879;28;20514;-77
2022/06/23 01:05:03;;;;;;;18.67;10.60;;;24.20;99.90;;;;;;5035827;28;20048;-76
2022/06/23 01:08:04;;;;;;;16.10;10.63;;;24.10;99.90;;;;;;5033486;28;20072;-77
2022/06/23 01:10:53;;;;;;;14.60;9.90;;;24.10;99.90;;;;;;5033928;28;20076;-76
2022/06/23 01:13:43;;;;;;;14.63;10.68;;;24.20;99.90;;;;;;5033818;28;20495;-77
2022/06/23 01:16:45;;;;;;;14.38;10.07;;;24.10;99.90;;;;;;5033447;28;20056;-77
2022/06/23 01:19:51;;;;;;;15.50;9.93;;;24.00;99.90;;;;;;5018295;28;20401;-77
2022/06/23 01:22:49;;;;;;;14.45;9.63;;;24.00;99.90;;;;;;5033846;28;20075;-79
2022/06/23 01:25:59;;;;;;;15.02;9.65;;;23.90;99.90;;;;;;5033903;28;20049;-78
2022/06/23 01:28:46;;;;;;;13.35;9.85;;;23.90;99.90;;;;;;5033928;28;20108;-78
2022/06/23 01:31:51;;;;;;;15.25;9.82;;;23.80;99.90;;;;;;5032916;28;20381;-76
2022/06/23 01:34:46;;;;;;;14.98;10.68;;;23.70;99.90;;;;;;5047939;28;20044;-76
2022/06/23 01:37:46;;;;;;;13.68;10.50;;;23.90;99.90;;;;;;5053290;28;20499;-76
2022/06/23 01:40:41;;;;;;;16.35;10.18;;;23.90;99.90;;;;;;5053443;28;20055;-76
2022/06/23 01:43:47;;;;;;;15.80;9.38;;;23.90;99.90;;;;;;5048938;28;20119;-76
2022/06/23 01:46:38;;;;;;;15.07;10.20;;;23.90;99.90;;;;;;5031033;28;20048;-76
2022/06/23 01:49:37;;;;;;;15.65;9.98;;;24.00;99.90;;;;;;5022370;28;20608;-77
2022/06/23 01:52:23;;;;;;;15.80;10.15;;;23.80;99.90;;;;;;5016398;28;20052;-76
2022/06/23 01:55:17;;;;;;;16.80;10.55;;;23.90;99.90;;;;;;5031635;28;20144;-76
2022/06/23 01:58:10;;;;;;;17.15;10.20;;;23.80;99.90;;;;;;5016729;28;20060;-78
2022/06/23 02:00:59;;;;;;;13.70;9.65;;;23.60;99.90;;;;;;5028994;28;20049;-77
2022/06/23 02:03:52;;;;;;;16.05;10.50;;;23.60;99.90;;;;;;5032706;28;20048;-77
2022/06/23 02:06:47;;;;;;;18.48;10.75;;;23.60;99.90;;;;;;5032742;28;20163;-76
2022/06/23 02:09:41;;;;;;;14.18;10.02;;;23.50;99.90;;;;;;5017737;28;20412;-77
2022/06/23 02:12:59;;;;;;;17.40;10.43;;;23.50;99.90;;;;;;5018255;28;20050;-77
2022/06/23 02:16:01;;;;;;;14.10;9.35;;;23.50;99.90;;;;;;5018217;28;20041;-78
2022/06/23 02:18:56;;;;;;;17.85;10.13;;;23.60;99.90;;;;;;5032647;28;20048;-77
2022/06/23 02:22:00;;;;;;;18.50;9.68;;;23.80;99.90;;;;;;5018090;28;20060;-77
2022/06/23 02:24:55;;;;;;;16.27;9.43;;;23.50;99.90;;;;;;5032566;28;20151;-77
2022/06/23 02:27:57;;;;;;;17.80;9.80;;;23.40;99.90;;;;;;5032514;28;20133;-77
2022/06/23 02:31:00;;;;;;;15.30;9.90;;;23.40;99.90;;;;;;5032508;28;20117;-77
2022/06/23 02:33:53;;;;;;;18.70;10.15;;;23.40;99.90;;;;;;5017361;28;20527;-77
2022/06/23 02:36:42;;;;;;;17.45;9.73;;;23.10;99.90;;;;;;5032387;28;20508;-77
2022/06/23 02:39:50;;;;;;;21.15;10.57;;;23.20;99.90;;;;;;5032676;28;20044;-77
2022/06/23 02:42:39;;;;;;;18.80;9.40;;;23.20;99.90;;;;;;5031415;28;20044;-77
2022/06/23 02:45:53;;;;;;;14.65;9.48;;;23.20;99.90;;;;;;5032109;28;20111;-77
2022/06/23 02:49:09;;;;;;;17.02;9.45;;;23.30;99.90;;;;;;5027131;28;20064;-78
2022/06/23 02:52:19;;;;;;;15.65;9.38;;;23.30;99.90;;;;;;5012513;28;20061;-77
2022/06/23 02:55:11;;;;;;;;;;;23.30;99.90;;;;;;5012604;28;20049;-77
2022/06/23 02:58:41;;;;;;;14.20;9.85;;;23.30;99.90;;;;;;5012273;28;19923;-75
2022/06/23 03:02:16;;;;;;;13.18;9.70;;;23.30;99.90;;;;;;4998047;28;20041;-77
2022/06/23 03:05:32;;;;;;;16.02;10.85;;;23.30;99.90;;;;;;5011856;28;20509;-77
2022/06/23 03:08:45;;;;;;;17.02;10.18;;;23.20;99.90;;;;;;5012208;28;20048;-76
2022/06/23 03:11:53;;;;;;;16.13;10.20;;;23.30;99.90;;;;;;5012038;28;20394;-79
2022/06/23 03:14:51;;;;;;;21.33;11.18;;;23.30;99.90;;;;;;5012013;28;20045;-76
2022/06/23 03:17:48;;;;;;;14.23;10.73;;;23.20;99.90;;;;;;5011929;28;20049;-77
2022/06/23 03:21:02;;;;;;;20.38;12.15;;;23.20;99.90;;;;;;4996972;28;20045;-77
2022/06/23 03:23:55;;;;;;;18.77;11.30;;;23.20;99.90;;;;;;4998067;28;20057;-76
2022/06/23 03:26:49;;;;;;;17.30;11.00;;;23.30;99.90;;;;;;5031553;28;20091;-77
2022/06/23 03:30:02;;;;;;;13.57;10.45;;;23.00;99.90;;;;;;5031781;28;20040;-77
2022/06/23 03:32:58;;;;;;;17.15;10.43;;;23.10;99.90;;;;;;5031853;28;20044;-76
2022/06/23 03:35:57;;;;;;;18.20;10.20;;;23.10;99.90;;;;;;5031382;28;20405;-75
2022/06/23 03:42:39;;;;;;;15.38;9.77;;;23.40;99.90;;;;;;5031619;28;20052;-76
2022/06/23 03:45:35;;;;;;;16.42;9.85;;;23.10;99.90;;;;;;5020885;28;20392;-78
2022/06/23 03:48:31;;;;;;;17.45;10.32;;;23.30;99.90;;;;;;5031251;28;20107;-76
2022/06/23 03:51:57;;;;;;;15.32;9.85;;;23.10;99.90;;;;;;5031488;28;20385;-77
2022/06/23 03:54:48;;;;;;;16.83;9.98;;;23.00;99.90;;;;;;5034945;28;20055;-75
2022/06/23 03:57:42;;;;;;;15.75;10.13;;;23.30;99.90;;;;;;5035291;28;20083;-77
2022/06/23 04:00:33;;;;;;;15.93;9.77;;;23.20;99.90;;;;;;5034998;28;20152;-77
2022/06/23 04:03:54;;;;;;;14.35;10.15;;;23.30;99.90;;;;;;5035159;28;20052;-77
2022/06/23 04:06:42;;;;;;;13.82;9.85;;;23.20;99.90;;;;;;5034823;28;20099;-78
2022/06/23 04:09:34;;;;;;;15.23;9.50;;;23.20;99.90;;;;;;5034823;28;20053;-78
2022/06/23 04:12:23;;;;;;;14.73;9.73;;;23.20;99.90;;;;;;5035560;28;20052;-77
2022/06/23 04:15:17;;;;;;;15.38;10.57;;;23.30;99.90;;;;;;5034900;28;20049;-76
2022/06/23 04:18:08;;;;;;;14.88;9.80;;;23.10;99.90;;;;;;5034938;28;20123;-77
2022/06/23 04:20:57;;;;;;;;;;;23.30;99.90;;;;;;5035554;28;20432;-77
2022/06/23 04:23:51;;;;;;;17.63;9.93;;;23.20;99.90;;;;;;5035279;28;20358;-77
2022/06/23 04:26:42;;;;;;;19.38;10.70;;;23.40;99.90;;;;;;5014752;28;20044;-77
2022/06/23 04:29:34;;;;;;;;;;;23.40;99.90;;;;;;5015736;28;20045;-77
2022/06/23 04:32:29;;;;;;;15.38;9.00;;;23.50;99.90;;;;;;5015065;28;19924;-77
2022/06/23 04:35:19;;;;;;;13.43;9.85;;;23.50;99.90;;;;;;5014545;28;20152;-77
2022/06/23 04:38:10;;;;;;;14.63;9.27;;;23.60;99.90;;;;;;5014316;28;20073;-76
2022/06/23 04:41:12;;;;;;;17.48;10.75;;;23.60;99.90;;;;;;5014671;28;20049;-78
2022/06/23 04:44:11;;;;;;;15.57;10.18;;;23.60;99.90;;;;;;5014584;28;20120;-77
2022/06/23 04:47:27;;;;;;;17.53;10.20;;;23.70;99.90;;;;;;5014768;28;20041;-76
2022/06/23 04:50:31;;;;;;;13.45;9.80;;;23.70;99.90;;;;;;5014219;28;20131;-77
2022/06/23 04:53:42;;;;;;;17.45;10.57;;;23.70;99.90;;;;;;5014371;28;20049;-76
2022/06/23 04:56:46;;;;;;;19.50;10.88;;;23.60;99.90;;;;;;5013958;28;20045;-78
2022/06/23 04:59:49;;;;;;;16.15;10.85;;;23.60;99.90;;;;;;5014210;28;20249;-77
2022/06/23 05:02:41;;;;;;;16.65;10.25;;;23.80;99.90;;;;;;5014220;28;20044;-77
2022/06/23 05:05:36;;;;;;;16.38;10.75;;;23.80;99.90;;;;;;5013303;28;20052;-77
2022/06/23 05:08:28;;;;;;;17.38;10.40;;;23.70;99.90;;;;;;5014538;28;20677;-77
2022/06/23 05:11:33;;;;;;;15.00;9.98;;;23.60;99.90;;;;;;5014351;28;20052;-78
2022/06/23 05:14:41;;;;;;;17.20;11.20;;;23.80;99.90;;;;;;5013271;28;20048;-78
2022/06/23 05:17:32;;;;;;;15.32;11.02;;;23.80;99.90;;;;;;4998893;28;20102;-77
2022/06/23 05:20:32;;;;;;;20.20;11.35;;;23.80;99.90;;;;;;5014279;28;20147;-78
2022/06/23 05:23:30;;;;;;;15.57;10.47;;;23.90;99.90;;;;;;5013781;28;20057;-77
2022/06/23 05:26:22;;;;;;;20.27;11.13;;;23.90;99.90;;;;;;5031456;28;20425;-78
2022/06/23 05:29:34;;;;;;;17.17;11.35;;;24.10;99.90;;;;;;5033871;28;20208;-77
2022/06/23 05:32:24;;;;;;;17.02;12.15;;;24.00;99.90;;;;;;5033413;28;20047;-78
2022/06/23 05:35:22;;;;;;;18.13;12.00;;;24.10;99.90;;;;;;5033373;28;20048;-76
2022/06/23 05:38:37;;;;;;;22.75;11.35;;;24.10;99.90;;;;;;5033330;28;20184;-76
2022/06/23 05:41:37;;;;;;;21.23;11.60;;;24.00;99.90;;;;;;5033215;28;20421;-77
2022/06/23 05:44:40;;;;;;;20.85;11.95;;;24.20;99.90;;;;;;5018876;28;20045;-78
2022/06/23 05:47:30;;;;;;;18.77;11.30;;;24.20;99.90;;;;;;5033257;28;20048;-77
2022/06/23 05:50:26;;;;;;;;;;;24.20;99.90;;;;;;5033304;28;20044;-77
2022/06/23 05:53:21;;;;;;;18.05;11.10;;;24.50;99.90;;;;;;5033550;28;19939;-76
2022/06/23 05:56:23;;;;;;;21.50;11.73;;;24.50;99.90;;;;;;5032934;28;20119;-77
2022/06/23 05:59:17;;;;;;;20.20;11.25;;;24.50;99.90;;;;;;5018149;28;20072;-77
2022/06/23 06:02:13;;;;;;;23.23;12.88;;;24.60;99.90;;;;;;5032889;28;20543;-77
2022/06/23 06:05:00;;;;;;;22.75;11.60;;;24.70;99.90;;;;;;5018157;28;20531;-77
2022/06/23 06:07:47;;;;;;;20.25;11.65;;;24.70;99.90;;;;;;5032576;28;20048;-76
2022/06/23 06:10:35;;;;;;;15.25;11.13;;;24.50;99.90;;;;;;5032737;28;20126;-77
2022/06/23 06:13:29;;;;;;;16.27;11.07;;;24.70;99.90;;;;;;5033024;28;20044;-77
2022/06/23 06:16:14;;;;;;;22.10;11.73;;;24.70;99.90;;;;;;5032218;28;20087;-76
2022/06/23 06:19:00;;;;;;;20.23;12.48;;;24.70;99.90;;;;;;5032944;28;20103;-77
2022/06/23 06:21:55;;;;;;;19.60;11.88;;;24.80;99.90;;;;;;5032804;28;20064;-77
2022/06/23 06:24:48;;;;;;;18.25;11.80;;;24.70;99.90;;;;;;5028316;28;20045;-77
2022/06/23 06:27:34;;;;;;;23.65;12.70;;;24.70;99.90;;;;;;5012746;28;20045;-76
2022/06/23 06:30:28;;;;;;;16.17;11.90;;;24.70;99.90;;;;;;5012340;28;20141;-76
2022/06/23 06:33:45;;;;;;;26.52;13.27;;;24.80;99.90;;;;;;5012718;28;20053;-77
2022/06/23 06:36:42;;;;;;;21.13;11.23;;;24.90;99.90;;;;;;5012808;28;20381;-75
2022/06/23 06:39:42;;;;;;;24.33;12.15;;;25.00;99.90;;;;;;4997463;28;20056;-77
2022/06/23 06:42:33;;;;;;;19.57;12.63;;;24.80;99.90;;;;;;5012889;28;20056;-77
2022/06/23 06:45:21;;;;;;;21.58;11.35;;;25.00;99.90;;;;;;5012743;28;20053;-77
2022/06/23 06:48:19;;;;;;;26.90;11.70;;;25.00;99.90;;;;;;5012854;28;20067;-77
2022/06/23 06:51:14;;;;;;;19.77;11.95;;;25.00;99.90;;;;;;5032190;28;20056;-76
2022/06/23 06:54:11;;;;;;;23.33;12.43;;;25.00;99.90;;;;;;5031938;28;20104;-77
2022/06/23 06:57:04;;;;;;;25.13;12.75;;;25.10;99.90;;;;;;5031861;28;20404;-77
2022/06/23 07:00:06;;;;;;;15.82;11.23;;;25.10;99.90;;;;;;5032391;28;20397;-76
2022/06/23 07:03:01;;;;;;;22.98;11.45;;;25.20;99.90;;;;;;5031933;28;20048;-77
2022/06/23 07:05:59;;;;;;;20.63;11.38;;;25.30;99.90;;;;;;5032355;28;20048;-77
2022/06/23 07:08:55;;;;;;;23.73;11.95;;;25.30;99.90;;;;;;5032196;28;20499;-78
2022/06/23 07:11:47;;;;;;;18.67;10.98;;;25.50;99.90;;;;;;5032238;28;20052;-78
2022/06/23 07:14:40;;;;;;;24.88;12.63;;;25.60;99.90;;;;;;5031116;28;20135;-77
2022/06/23 07:17:32;;;;;;;18.55;10.82;;;25.70;99.90;;;;;;5031826;28;20059;-77
2022/06/23 07:20:47;;;;;;;20.00;11.13;;;25.70;99.90;;;;;;5020713;28;20082;-78
2022/06/23 07:23:43;;;;;;;16.73;11.70;;;25.60;99.90;;;;;;5049294;28;20043;-78
2022/06/23 07:26:43;;;;;;;16.70;10.63;;;25.70;99.90;;;;;;5049194;28;20061;-76
2022/06/23 07:29:52;;;;;;;19.75;11.13;;;25.80;99.90;;;;;;5047602;28;20495;-77
2022/06/23 07:32:38;;;;;;;17.50;10.60;;;25.80;99.90;;;;;;5027523;28;20040;-78
2022/06/23 07:35:31;;;;;;;14.88;10.35;;;25.70;99.90;;;;;;5048987;28;20436;-77
2022/06/23 07:38:28;;;;;;;15.95;9.98;;;25.90;99.90;;;;;;5027199;28;20044;-77
2022/06/23 07:41:30;;;;;;;17.35;10.30;;;26.00;99.90;;;;;;5029452;28;20068;-76
2022/06/23 07:44:43;;;;;;;16.40;10.88;;;26.30;99.90;;;;;;5049750;28;20126;-78
2022/06/23 07:47:29;;;;;;;17.77;10.50;;;26.20;99.90;;;;;;5047376;28;20043;-77
2022/06/23 07:50:16;;;;;;;18.90;10.85;;;26.10;99.90;;;;;;5047834;28;20056;-78
2022/06/23 07:53:02;;;;;;;17.08;11.05;;;26.10;99.90;;;;;;5040243;28;20056;-76
2022/06/23 07:55:49;;;;;;;28.30;20.40;;;26.20;99.90;;;;;;5024068;28;20176;-77
2022/06/23 07:58:39;;;;;;;32.45;23.00;;;26.40;99.90;;;;;;5039726;28;20076;-78
2022/06/23 08:01:27;;;;;;;20.00;16.08;;;26.50;99.90;;;;;;5025921;28;20036;-76
2022/06/23 08:04:51;;;;;;;18.27;11.52;;;26.60;99.90;;;;;;5039458;28;20126;-78
2022/06/23 08:07:38;;;;;;;19.05;9.50;;;26.70;99.90;;;;;;4967819;28;20054;-77
2022/06/23 08:10:29;;;;;;;21.65;10.95;;;26.60;99.90;;;;;;4968386;28;20050;-77
2022/06/23 08:13:25;;;;;;;19.23;9.95;;;26.60;99.90;;;;;;5016819;28;20052;-79
2022/06/23 08:19:19;;;;;;;13.77;9.02;;;26.70;99.90;;;;;;5040017;28;20048;-78
2022/06/23 08:22:14;;;;;;;16.65;10.27;;;26.80;99.90;;;;;;5040728;28;20048;-78
2022/06/23 08:25:05;;;;;;;16.60;8.93;;;26.90;99.90;;;;;;5038435;28;20068;-80
2022/06/23 08:28:08;;;;;;;12.50;9.45;;;27.00;99.90;;;;;;5039231;28;20140;-76
2022/06/23 08:30:54;;;;;;;16.00;8.73;;;27.00;99.90;;;;;;5039335;28;20063;-77
2022/06/23 08:33:40;;;;;;;14.48;9.45;;;27.20;99.90;;;;;;5040391;28;20792;-77
2022/06/23 08:36:48;;;;;;;15.80;9.55;;;27.30;99.90;;;;;;5038930;28;20189;-77
2022/06/23 08:39:59;;;;;;;13.93;9.50;;;27.20;99.90;;;;;;5039285;28;20053;-76
2022/06/23 08:43:21;;;;;;;15.68;10.75;;;27.40;99.90;;;;;;5044529;28;20055;-80
2022/06/23 08:46:44;;;;;;;15.98;9.15;;;27.50;99.90;;;;;;5026569;28;20056;-81
2022/06/23 08:49:39;;;;;;;25.75;17.55;;;27.50;99.90;;;;;;5019041;28;20397;-78
2022/06/23 08:52:46;;;;;;;14.77;11.82;;;27.60;99.90;;;;;;5034315;28;20429;-78
2022/06/23 08:55:43;;;;;;;22.40;14.52;;;27.70;99.90;;;;;;5034261;28;20064;-80
2022/06/23 08:58:53;;;;;;;21.90;14.55;;;27.70;99.90;;;;;;5034039;28;20048;-78
2022/06/23 09:01:45;;;;;;;43.63;29.30;;;27.70;99.90;;;;;;5029032;28;20040;-76
2022/06/23 09:05:17;;;;;;;19.48;11.98;;;27.60;99.90;;;;;;5034200;28;20172;-77
2022/06/23 09:08:05;;;;;;;23.63;14.57;;;27.80;99.90;;;;;;4953514;29;20098;-78
2022/06/23 09:11:23;;;;;;;20.67;11.50;;;28.10;99.90;;;;;;5019559;28;20392;-75
2022/06/23 09:14:24;;;;;;;16.65;9.98;;;28.20;99.90;;;;;;5033843;28;20057;-76
2022/06/23 09:17:28;;;;;;;13.05;8.93;;;28.30;99.90;;;;;;5033934;28;20130;-75
2022/06/23 09:20:39;;;;;;;21.73;9.90;;;28.40;99.90;;;;;;5034008;28;20063;-75
2022/06/23 09:23:37;;;;;;;;;;;28.60;99.90;;;;;;5034067;28;20060;-76
2022/06/23 09:26:49;;;;;;;16.88;10.10;;;28.60;99.90;;;;;;5033957;28;19924;-75
2022/06/23 09:29:55;;;;;;;17.75;9.05;;;28.50;99.90;;;;;;5033401;28;20049;-77
2022/06/23 09:33:04;;;;;;;15.48;8.65;;;28.50;99.90;;;;;;5033550;28;20399;-76
2022/06/23 09:36:09;;;;;;;14.45;9.00;;;28.80;99.90;;;;;;5032400;28;20192;-77
2022/06/23 09:39:18;;;;;;;14.68;9.30;;;28.90;99.90;;;;;;5033291;28;20102;-76
2022/06/23 09:42:32;;;;;;;17.10;9.38;;;28.70;99.90;;;;;;5032231;28;20052;-75
2022/06/23 09:45:21;;;;;;;19.50;8.52;;;29.00;99.90;;;;;;5018434;28;20075;-76
2022/06/23 09:48:22;;;;;;;13.73;8.70;;;29.00;99.90;;;;;;5033380;28;20048;-75
2022/06/23 09:51:35;;;;;;;43.42;30.38;;;29.10;99.90;;;;;;5017720;28;20056;-75
2022/06/23 09:54:36;;;;;;;23.65;16.05;;;29.30;99.90;;;;;;5039551;28;20044;-75
2022/06/23 09:57:52;;;;;;;16.55;10.20;;;29.20;99.90;;;;;;5042177;28;20175;-74
2022/06/23 10:01:17;;;;;;;13.60;9.13;;;29.20;99.90;;;;;;5032914;28;20056;-75
2022/06/23 10:04:25;;;;;;;13.07;9.02;;;29.60;99.90;;;;;;5018326;28;20044;-75
2022/06/23 10:07:28;;;;;;;19.88;9.63;;;29.80;99.90;;;;;;5033058;28;20052;-77
2022/06/23 10:11:06;;;;;;;21.67;9.20;;;29.90;99.90;;;;;;5031953;28;20059;-74
2022/06/23 10:14:05;;;;;;;14.25;9.60;;;29.70;99.70;;;;;;5028583;28;20044;-74
2022/06/23 10:17:06;;;;;;;18.38;7.50;;;29.90;99.30;;;;;;5032535;28;20045;-74
2022/06/23 10:19:52;;;;;;;17.13;8.55;;;30.20;98.90;;;;;;5033094;28;20052;-76
2022/06/23 10:23:13;;;;;;;18.63;8.05;;;30.20;97.40;;;;;;5017743;28;20164;-74
2022/06/23 10:26:17;;;;;;;17.95;8.60;;;30.20;97.40;;;;;;5017975;28;20045;-76
2022/06/23 10:29:48;;;;;;;20.33;11.73;;;30.20;97.60;;;;;;5036006;28;20385;-76
2022/06/23 10:33:04;;;;;;;18.20;12.43;;;30.40;97.20;;;;;;5022606;28;20067;-74
2022/06/23 10:36:09;;;;;;;22.25;16.02;;;30.40;96.30;;;;;;5028019;28;20051;-75
2022/06/23 10:39:02;;;;;;;;;;;30.50;96.00;;;;;;5018404;28;20091;-75
2022/06/23 10:42:16;;;;;;;32.03;21.73;;;30.70;96.00;;;;;;5039226;28;19975;-76
2022/06/23 10:45:13;;;;;;;60.33;44.10;;;30.70;95.30;;;;;;5031566;28;20052;-76
2022/06/23 10:48:26;;;;;;;33.47;21.70;;;30.90;95.20;;;;;;5017093;28;20060;-80
2022/06/23 10:51:33;;;;;;;21.55;9.77;;;31.10;94.90;;;;;;5016411;28;20195;-76
2022/06/23 10:54:36;;;;;;;15.25;9.13;;;31.10;94.70;;;;;;5017236;28;20049;-77
2022/06/23 10:57:24;;;;;;;18.05;8.27;;;31.20;94.20;;;;;;5016779;28;20068;-76
2022/06/23 11:00:19;;;;;;;15.48;7.93;;;31.30;94.20;;;;;;5031494;28;20056;-77
2022/06/23 11:03:28;;;;;;;14.70;7.10;;;31.40;93.20;;;;;;5016260;28;20048;-77
2022/06/23 11:06:24;;;;;;;15.57;7.70;;;31.50;92.70;;;;;;5031560;28;20040;-77
2022/06/23 11:09:25;;;;;;;16.95;7.07;;;31.40;93.10;;;;;;5031547;28;20464;-77
2022/06/23 11:13:12;;;;;;;13.88;8.32;;;31.60;93.30;;;;;;5031599;28;20049;-76
2022/06/23 11:16:29;;;;;;;16.35;7.85;;;31.50;93.50;;;;;;4950746;29;20066;-77
2022/06/23 11:20:02;;;;;;;17.40;7.22;;;31.70;91.70;;;;;;5030452;28;20550;-78
2022/06/23 11:22:59;;;;;;;14.50;7.63;;;31.80;90.50;;;;;;5029746;28;20060;-79
2022/06/23 11:25:58;;;;;;;13.57;7.63;;;31.70;88.80;;;;;;5029253;28;20048;-79
2022/06/23 11:29:15;;;;;;;14.30;7.25;;;31.90;89.30;;;;;;5029979;28;20287;-78
2022/06/23 11:32:40;;;;;;;17.25;7.40;;;32.20;88.20;;;;;;5029769;28;20095;-77
2022/06/23 11:35:41;;;;;;;17.65;12.10;;;32.30;86.10;;;;;;5030638;28;20145;-77
2022/06/23 11:38:30;;;;;;;18.50;10.15;;;32.10;87.50;;;;;;5030952;28;20142;-78
2022/06/23 11:41:47;;;;;;;15.77;7.70;;;32.30;86.90;;;;;;5031211;28;20385;-82
2022/06/23 11:44:57;;;;;;;15.93;7.65;;;32.70;89.40;;;;;;5031274;28;20049;-80
2022/06/23 11:47:43;;;;;;;12.25;7.43;;;32.90;86.10;;;;;;5030726;28;20048;-79
2022/06/23 11:50:40;;;;;;;28.45;21.70;;;32.70;85.40;;;;;;5030705;28;20057;-79
2022/06/23 11:53:59;;;;;;;44.78;33.38;;;32.50;86.20;;;;;;5030191;28;20503;-78
2022/06/23 11:57:13;;;;;;;47.30;36.45;;;32.50;85.30;;;;;;5029716;28;20053;-74
2022/06/23 12:00:07;;;;;;;31.45;13.73;;;32.70;85.90;;;;;;5031155;28;20397;-75
2022/06/23 12:03:29;;;;;;;15.10;8.43;;;32.70;84.90;;;;;;5035668;28;20044;-77
2022/06/23 12:06:24;;;;;;;78.20;56.35;;;32.50;85.10;;;;;;5035991;28;20064;-78
2022/06/23 12:09:34;;;;;;;56.78;42.25;;;32.60;83.90;;;;;;5049236;28;20515;-76
2022/06/23 12:12:25;;;;;;;58.85;42.47;;;32.70;82.00;;;;;;5050754;28;20399;-81
2022/06/23 12:15:15;;;;;;;29.35;20.20;;;32.50;81.90;;;;;;5053128;28;20511;-82
2022/06/23 12:18:40;;;;;;;19.35;11.02;;;32.60;81.60;;;;;;5054810;28;20044;-83
2022/06/23 12:21:57;;;;;;;25.23;13.80;;;32.70;82.40;;;;;;5054627;28;20055;-79
2022/06/23 12:25:21;;;;;;;45.00;28.48;;;32.70;81.40;;;;;;5051565;28;20043;-78
2022/06/23 12:28:31;;;;;;;34.45;21.42;;;32.90;78.90;;;;;;4992895;28;20057;-78
2022/06/23 12:31:29;;;;;;;16.42;11.05;;;32.40;79.50;;;;;;4992664;28;20217;-77
2022/06/23 12:38:48;;;;;;;17.58;7.50;;;31.40;78.00;;;;;;5035993;28;20098;-77
2022/06/23 12:41:46;;;;;;;13.02;6.85;;;31.40;77.90;;;;;;5056658;28;20048;-76
2022/06/23 12:44:56;;;;;;;15.75;7.28;;;31.30;78.90;;;;;;5037319;28;20085;-76
2022/06/23 12:47:45;;;;;;;26.77;7.82;;;31.30;81.70;;;;;;5042607;28;20447;-78
2022/06/23 12:51:05;;;;;;;18.65;7.78;;;31.40;79.80;;;;;;5047182;28;20044;-79
2022/06/23 12:53:52;;;;;;;20.42;7.13;;;31.10;82.20;;;;;;5042735;28;20094;-77
2022/06/23 12:56:46;;;;;;;14.27;5.10;;;30.90;83.50;;;;;;5054173;28;20183;-78
2022/06/23 12:59:56;;;;;;;23.08;6.28;;;30.60;85.90;;;;;;5053352;28;20094;-77
2022/06/23 13:02:49;;;;;;;18.05;5.25;;;30.40;87.40;;;;;;5053803;28;20051;-77
2022/06/23 13:06:14;;;;;;;17.83;6.13;;;30.20;88.00;;;;;;5038669;28;20048;-78
2022/06/23 13:09:30;;;;;;;19.13;6.90;;;30.10;90.00;;;;;;5047175;28;20086;-76
2022/06/23 13:13:10;;;;;;;16.92;5.55;;;30.20;90.40;;;;;;5053615;28;20043;-78
2022/06/23 13:16:03;;;;;;;19.52;5.60;;;30.20;91.10;;;;;;4994132;28;20402;-77
2022/06/23 13:19:25;;;;;;;17.52;6.40;;;30.00;91.00;;;;;;5038342;28;20170;-81
2022/06/23 13:23:11;;;;;;;26.08;6.05;;;29.90;90.70;;;;;;5034934;28;20040;-79
2022/06/23 13:26:04;;;;;;;63.17;10.05;;;30.00;87.00;;;;;;5041302;28;20116;-80
2022/06/23 13:29:01;;;;;;;25.35;6.57;;;29.60;92.20;;;;;;5031971;28;20051;-80
2022/06/23 13:32:10;;;;;;;14.45;5.60;;;28.60;97.10;;;;;;5032783;28;20052;-79
2022/06/23 13:35:27;;;;;;;18.93;6.30;;;28.90;95.00;;;;;;5033298;28;20389;-78
2022/06/23 13:38:43;;;;;;;12.82;6.03;;;29.60;95.50;;;;;;5032233;28;20052;-75
2022/06/23 13:41:57;;;;;;;11.15;4.45;;;30.20;96.70;;;;;;5025042;28;20040;-79
2022/06/23 13:45:24;;;;;;;15.45;4.28;;;30.50;93.20;;;;;;5027480;28;20171;-79
2022/06/23 13:48:34;;;;;;;20.85;9.90;;;30.60;93.00;;;;;;5049715;28;20052;-77
2022/06/23 13:51:37;;;;;;;15.13;8.35;;;30.50;91.20;;;;;;5039388;28;20127;-77
2022/06/23 13:54:41;;;;;;;10.50;4.75;;;29.90;86.40;;;;;;5048448;28;20491;-75
2022/06/23 13:57:41;;;;;;;10.90;4.82;;;30.10;89.30;;;;;;5039659;28;20052;-76
2022/06/23 14:00:32;;;;;;;14.35;5.38;;;28.90;90.90;;;;;;5053167;28;20491;-79
2022/06/23 14:03:48;;;;;;;33.50;20.58;;;28.60;91.10;;;;;;5052406;28;20048;-80
2022/06/23 14:06:40;;;;;;;13.80;5.70;;;28.90;90.40;;;;;;5036079;28;20048;-77
2022/06/23 14:10:01;;;;;;;12.05;5.28;;;28.70;92.00;;;;;;5052624;28;20068;-77
2022/06/23 14:12:52;;;;;;;18.05;5.00;;;28.40;94.00;;;;;;5051054;28;20137;-82
2022/06/23 14:15:48;;;;;;;16.90;4.70;;;28.20;95.50;;;;;;5037642;28;20187;-82
2022/06/23 14:19:01;;;;;;;11.90;5.25;;;28.00;96.30;;;;;;5052644;28;20099;-80
2022/06/23 14:21:57;;;;;;;10.25;5.45;;;27.90;95.80;;;;;;5038082;28;20056;-81
2022/06/23 14:25:06;;;;;;;12.13;4.70;;;27.70;96.90;;;;;;5038096;28;20067;-82
2022/06/23 14:28:24;;;;;;;10.15;5.55;;;27.50;97.00;;;;;;5031702;28;20181;-78
2022/06/23 14:31:35;;;;;;;11.23;5.05;;;27.50;97.90;;;;;;5032584;28;20060;-78
2022/06/23 14:34:38;;;;;;;11.93;5.25;;;27.40;98.10;;;;;;5031441;28;20088;-76
2022/06/23 14:37:40;;;;;;;13.23;5.40;;;27.30;98.50;;;;;;5032297;28;20049;-78
2022/06/23 14:40:49;;;;;;;10.63;5.22;;;27.30;99.10;;;;;;5031732;28;20514;-79
2022/06/23 14:44:10;;;;;;;11.10;6.15;;;27.10;99.90;;;;;;5031895;28;20079;-80
2022/06/23 14:47:17;;;;;;;14.13;5.75;;;27.20;99.90;;;;;;4995148;28;20060;-77
2022/06/23 14:50:30;;;;;;;14.48;6.00;;;27.10;99.90;;;;;;5016389;28;20056;-77
2022/06/23 14:53:48;;;;;;;14.00;6.10;;;27.20;99.90;;;;;;5031924;28;20053;-79
2022/06/23 14:56:41;;;;;;;12.00;6.30;;;27.00;99.90;;;;;;5016936;28;20052;-76
2022/06/23 14:59:34;;;;;;;15.77;5.75;;;27.10;99.90;;;;;;5031348;28;20500;-77
2022/06/23 15:02:34;;;;;;;12.23;6.70;;;27.00;99.90;;;;;;5032004;28;20164;-77
2022/06/23 15:05:48;;;;;;;14.20;6.30;;;27.10;99.90;;;;;;5031571;28;20063;-80
2022/06/23 15:08:47;;;;;;;15.60;8.93;;;27.10;99.90;;;;;;5031460;28;20065;-77
2022/06/23 15:11:33;;;;;;;52.50;39.22;;;27.10;99.90;;;;;;5031951;28;20050;-77
2022/06/23 15:14:23;;;;;;;16.67;11.88;;;27.10;99.90;;;;;;5031662;28;20052;-77
2022/06/23 15:17:32;;;;;;;13.15;7.53;;;27.10;99.90;;;;;;5031218;28;20140;-77
2022/06/23 15:20:39;;;;;;;16.73;5.90;;;27.20;99.90;;;;;;5030169;28;20056;-77
2022/06/23 15:23:41;;;;;;;21.52;10.82;;;27.10;99.90;;;;;;5031026;28;20053;-78
2022/06/23 15:26:35;;;;;;;138.52;92.60;;;27.00;99.90;;;;;;5017074;28;20056;-80
2022/06/23 15:29:46;;;;;;;22.73;15.40;;;27.00;99.90;;;;;;5016292;28;20499;-80
2022/06/23 15:32:40;;;;;;;16.38;6.68;;;27.00;99.90;;;;;;5016810;28;20036;-79
2022/06/23 15:35:40;;;;;;;16.30;7.10;;;27.00;99.90;;;;;;5031125;28;20099;-77
2022/06/23 15:38:36;;;;;;;9.52;6.63;;;27.00;99.90;;;;;;5031050;28;20593;-79